Time;durP1;ratioP1;P1;durP2;ratioP2;P2;SDS_P1;SDS_P2;PMS_P1;PMS_P2;Temp;Humidity;BMP_temperature;BMP_pressure;BME280_temperature;BME280_humidity;BME280_pressure;Samples;Min_cycle;Max_cycle;Signal;HPM_P1;HPM_P2
2022/07/09 00:00:06;;;;;;;;;;;;;;;17.36;73.02;102798.91;5087981;28;19962;-61
2022/07/09 00:02:31;;;;;;;;;;;;;;;17.33;73.00;102789.31;5076420;28;20295;-61
2022/07/09 00:04:56;;;;;;;;;;;;;;;17.31;72.62;102789.50;5085677;28;19964;-61
2022/07/09 00:07:21;;;;;;;;;;;;;;;17.29;72.44;102790.66;5084167;28;20403;-61
2022/07/09 00:09:47;;;;;;;;;;;;;;;17.27;72.83;102793.53;5086415;28;19934;-61
2022/07/09 00:12:12;;;;;;;;;;;;;;;17.25;72.84;102790.16;5081548;28;20318;-61
2022/07/09 00:14:37;;;;;;;;;;;;;;;17.21;72.92;102793.34;5085181;28;19955;-61
2022/07/09 00:17:02;;;;;;;;;;;;;;;17.17;72.77;102794.69;5083816;28;19912;-62
2022/07/09 00:19:27;;;;;;;;;;;;;;;17.15;72.69;102804.78;5083762;28;19946;-61
2022/07/09 00:21:53;;;;;;;;;;;;;;;17.09;72.19;102797.38;5085124;28;19951;-61
2022/07/09 00:24:18;;;;;;;;;;;;;;;17.04;72.69;102804.06;5085512;28;19912;-61
2022/07/09 00:26:43;;;;;;;;;;;;;;;17.00;73.26;102805.41;5077502;28;19955;-62
2022/07/09 00:29:08;;;;;;;;;;;;;;;16.96;73.41;102796.00;5086166;28;19912;-61
2022/07/09 00:31:33;;;;;;;;;;;;;;;16.92;73.96;102796.50;5080102;28;21913;-61
2022/07/09 00:33:59;;;;;;;;;;;;;;;16.85;74.15;102787.44;5081282;28;20087;-61
2022/07/09 00:36:24;;;;;;;;;;;;;;;16.79;73.92;102788.94;5085154;28;19988;-61
2022/07/09 00:38:49;;;;;;;;;;;;;;;16.70;73.92;102785.38;5084810;28;20017;-60
2022/07/09 00:41:14;;;;;;;;;;;;;;;16.70;73.77;102793.41;5083621;28;20004;-61
2022/07/09 00:43:45;;;;;;;;;;;;;;;16.68;74.38;102790.06;5080207;28;20565;-61
2022/07/09 00:46:10;;;;;;;;;;;;;;;16.66;74.99;102785.88;5084385;28;19924;-61
2022/07/09 00:48:35;;;;;;;;;;;;;;;16.66;74.92;102792.06;5085858;28;19916;-61
2022/07/09 00:51:01;;;;;;;;;;;;;;;16.65;74.53;102790.34;5083818;28;19911;-61
2022/07/09 00:53:26;;;;;;;;;;;;;;;16.64;74.21;102790.53;5083819;28;20015;-61
2022/07/09 00:55:51;;;;;;;;;;;;;;;16.61;73.96;102788.16;5079464;28;19981;-61
2022/07/09 00:58:18;;;;;;;;;;;;;;;16.58;74.25;102777.75;5078467;28;20383;-61
2022/07/09 01:00:44;;;;;;;;;;;;;;;16.55;74.21;102781.63;5083625;28;19919;-61
2022/07/09 01:03:09;;;;;;;;;;;;;;;16.52;74.11;102787.31;5085294;28;19908;-61
2022/07/09 01:05:37;;;;;;;;;;;;;;;16.49;74.02;102779.59;5083470;28;20668;-61
2022/07/09 01:08:04;;;;;;;;;;;;;;;16.47;73.74;102780.72;5082674;28;19934;-61
2022/07/09 01:10:30;;;;;;;;;;;;;;;16.46;74.11;102781.72;5087438;28;20374;-61
2022/07/09 01:12:55;;;;;;;;;;;;;;;16.43;74.69;102774.84;5083602;28;19918;-61
2022/07/09 01:15:20;;;;;;;;;;;;;;;16.39;75.03;102777.00;5088261;28;19912;-61
2022/07/09 01:17:45;;;;;;;;;;;;;;;16.36;75.16;102771.97;5090087;28;19973;-61
2022/07/09 01:20:11;;;;;;;;;;;;;;;16.35;75.22;102769.47;5088659;28;20374;-61
2022/07/09 01:22:36;;;;;;;;;;;;;;;16.33;75.46;102761.56;5086639;28;19919;-61
2022/07/09 01:25:04;;;;;;;;;;;;;;;16.32;75.22;102757.22;5090183;28;19908;-61
2022/07/09 01:27:30;;;;;;;;;;;;;;;16.32;75.93;102757.22;5088179;28;19955;-61
2022/07/09 01:29:55;;;;;;;;;;;;;;;16.32;75.63;102764.44;5088717;28;20358;-61
2022/07/09 01:32:20;;;;;;;;;;;;;;;16.31;75.63;102757.38;5087949;28;20355;-61
2022/07/09 01:34:45;;;;;;;;;;;;;;;16.29;75.44;102765.59;5081959;28;19969;-60
2022/07/09 01:37:10;;;;;;;;;;;;;;;16.28;75.34;102765.75;5091727;28;19908;-61
2022/07/09 01:39:49;;;;;;;;;;;;;;;16.24;75.33;102759.88;5091593;28;19919;-61
2022/07/09 01:42:14;;;;;;;;;;;;;;;16.21;75.34;102756.69;5089752;28;20223;-61
2022/07/09 01:44:40;;;;;;;;;;;;;;;16.18;75.21;102747.09;5090557;28;19911;-61
2022/07/09 01:47:05;;;;;;;;;;;;;;;16.16;75.58;102753.63;5087668;28;19947;-61
2022/07/09 01:49:30;;;;;;;;;;;;;;;16.14;75.49;102755.63;5090876;28;19908;-61
2022/07/09 01:51:55;;;;;;;;;;;;;;;16.11;75.93;102746.06;5085825;28;20073;-61
2022/07/09 01:54:20;;;;;;;;;;;;;;;16.08;76.00;102749.06;5089735;28;20016;-61
2022/07/09 01:56:45;;;;;;;;;;;;;;;16.04;76.14;102750.38;5088785;28;19957;-61
2022/07/09 01:59:11;;;;;;;;;;;;;;;16.01;76.34;102750.72;5083931;28;20403;-62
2022/07/09 02:01:36;;;;;;;;;;;;;;;15.96;76.59;102745.84;5089289;28;19916;-61
2022/07/09 02:04:01;;;;;;;;;;;;;;;15.95;77.24;102749.50;5083882;28;20282;-61
2022/07/09 02:06:26;;;;;;;;;;;;;;;15.91;77.24;102741.97;5084503;28;19916;-60
2022/07/09 02:08:52;;;;;;;;;;;;;;;15.86;77.63;102750.44;5088619;28;19919;-61
2022/07/09 02:11:17;;;;;;;;;;;;;;;15.74;77.12;102749.88;5088820;28;19920;-61
2022/07/09 02:13:42;;;;;;;;;;;;;;;15.64;77.92;102745.63;5087770;28;19912;-62
2022/07/09 02:16:08;;;;;;;;;;;;;;;15.58;77.94;102752.44;5081485;28;20442;-61
2022/07/09 02:18:33;;;;;;;;;;;;;;;15.56;78.57;102749.03;5087547;28;19922;-60
2022/07/09 02:20:58;;;;;;;;;;;;;;;15.54;78.99;102744.84;5082285;28;19912;-61
2022/07/09 02:23:23;;;;;;;;;;;;;;;15.51;79.54;102746.00;5083582;28;19918;-61
2022/07/09 02:25:48;;;;;;;;;;;;;;;15.50;79.33;102747.84;5090038;28;20071;-61
2022/07/09 02:28:14;;;;;;;;;;;;;;;15.50;79.81;102739.81;5089598;28;20381;-61
2022/07/09 02:30:39;;;;;;;;;;;;;;;15.50;79.78;102736.28;5085919;28;19912;-61
2022/07/09 02:33:04;;;;;;;;;;;;;;;15.50;79.82;102730.94;5082992;28;19919;-61
2022/07/09 02:35:30;;;;;;;;;;;;;;;15.51;80.23;102727.25;5089137;28;19908;-61
2022/07/09 02:37:55;;;;;;;;;;;;;;;15.51;79.77;102727.25;5087489;28;19926;-61
2022/07/09 02:40:20;;;;;;;;;;;;;;;15.51;79.70;102724.56;5090470;28;19918;-61
2022/07/09 02:42:45;;;;;;;;;;;;;;;15.52;79.28;102720.06;5085796;28;19912;-61
2022/07/09 02:45:10;;;;;;;;;;;;;;;15.55;79.84;102709.03;5090117;28;20165;-61
2022/07/09 02:47:36;;;;;;;;;;;;;;;15.55;79.84;102717.91;5088555;28;21567;-61
2022/07/09 02:50:01;;;;;;;;;;;;;;;15.56;80.13;102721.44;5090306;28;20402;-61
2022/07/09 02:52:26;;;;;;;;;;;;;;;15.56;80.23;102716.91;5086210;28;19954;-61
2022/07/09 02:54:51;;;;;;;;;;;;;;;15.56;80.08;102711.56;5085015;28;20003;-62
2022/07/09 02:57:16;;;;;;;;;;;;;;;15.54;79.92;102710.88;5085029;28;20486;-61
2022/07/09 02:59:41;;;;;;;;;;;;;;;15.58;80.02;102712.25;5085120;28;20007;-61
2022/07/09 03:02:07;;;;;;;;;;;;;;;15.58;79.67;102712.25;5088024;28;20300;-61
2022/07/09 03:04:32;;;;;;;;;;;;;;;15.61;79.25;102719.16;5083049;28;19912;-61
2022/07/09 03:06:57;;;;;;;;;;;;;;;15.62;78.91;102721.69;5081511;28;20002;-61
2022/07/09 03:09:22;;;;;;;;;;;;;;;15.64;79.13;102713.50;5086065;28;19918;-61
2022/07/09 03:11:48;;;;;;;;;;;;;;;15.64;78.54;102711.66;5080366;28;19918;-61
2022/07/09 03:14:13;;;;;;;;;;;;;;;15.58;78.54;102712.25;5084541;28;19912;-62
2022/07/09 03:16:38;;;;;;;;;;;;;;;15.54;78.35;102712.72;5083334;28;20011;-61
2022/07/09 03:19:03;;;;;;;;;;;;;;;15.52;78.40;102712.03;5084864;28;19919;-61
2022/07/09 03:21:28;;;;;;;;;;;;;;;15.50;78.31;102715.72;5083674;28;20383;-61
2022/07/09 03:23:53;;;;;;;;;;;;;;;15.48;78.02;102720.38;5086255;28;19912;-61
2022/07/09 03:26:19;;;;;;;;;;;;;;;15.47;78.12;102717.88;5085277;28;19964;-61
2022/07/09 03:28:44;;;;;;;;;;;;;;;15.44;78.06;102718.19;5084456;28;19912;-61
2022/07/09 03:31:09;;;;;;;;;;;;;;;15.45;77.86;102720.69;5082625;28;19919;-61
2022/07/09 03:33:34;;;;;;;;;;;;;;;15.47;78.02;102723.22;5086132;28;19915;-61
2022/07/09 03:35:59;;;;;;;;;;;;;;;15.45;77.69;102715.34;5084393;28;19984;-62
2022/07/09 03:38:25;;;;;;;;;;;;;;;15.38;77.81;102713.47;5085674;28;20328;-62
2022/07/09 03:40:50;;;;;;;;;;;;;;;15.30;77.49;102719.56;5087164;28;19916;-61
2022/07/09 03:43:16;;;;;;;;;;;;;;;15.27;77.49;102711.84;5082142;28;19913;-61
2022/07/09 03:45:41;;;;;;;;;;;;;;;15.27;77.52;102708.34;5083732;28;20417;-62
2022/07/09 03:48:06;;;;;;;;;;;;;;;15.26;77.63;102712.84;5085972;28;20379;-60
2022/07/09 03:50:31;;;;;;;;;;;;;;;15.24;77.94;102714.84;5082528;28;19919;-61
2022/07/09 03:52:57;;;;;;;;;;;;;;;15.21;78.38;102711.63;5084725;28;19912;-61
2022/07/09 03:55:22;;;;;;;;;;;;;;;15.18;78.45;102708.28;5081963;28;19912;-61
2022/07/09 03:57:48;;;;;;;;;;;;;;;15.15;78.31;102708.59;5079088;28;19977;-62
2022/07/09 04:00:13;;;;;;;;;;;;;;;15.15;78.64;102713.09;5081716;28;19918;-61
2022/07/09 04:02:39;;;;;;;;;;;;;;;15.15;78.91;102715.78;5076813;28;19916;-61
2022/07/09 04:05:04;;;;;;;;;;;;;;;15.10;79.25;102712.72;5077680;28;19965;-61
2022/07/09 04:07:29;;;;;;;;;;;;;;;15.07;79.60;102711.22;5083674;28;19916;-61
2022/07/09 04:09:54;;;;;;;;;;;;;;;15.04;79.74;102694.63;5085557;28;19915;-61
2022/07/09 04:12:20;;;;;;;;;;;;;;;15.04;80.35;102697.31;5082106;28;19911;-61
2022/07/09 04:14:45;;;;;;;;;;;;;;;15.05;80.43;102691.78;5081703;28;19920;-61
2022/07/09 04:17:10;;;;;;;;;;;;;;;15.08;80.01;102694.16;5085763;28;20403;-61
2022/07/09 04:19:36;;;;;;;;;;;;;;;15.12;79.72;102695.53;5084221;28;20043;-61
2022/07/09 04:22:02;;;;;;;;;;;;;;;15.16;79.40;102696.06;5082642;28;19916;-61
2022/07/09 04:24:27;;;;;;;;;;;;;;;15.21;79.62;102690.22;5081642;28;19916;-60
2022/07/09 04:26:52;;;;;;;;;;;;;;;15.24;79.22;102698.78;5084703;28;20300;-61
2022/07/09 04:29:17;;;;;;;;;;;;;;;15.26;79.51;102699.47;5083483;28;20374;-60
2022/07/09 04:31:43;;;;;;;;;;;;;;;15.28;79.26;102693.94;5083086;28;19970;-61
2022/07/09 04:34:08;;;;;;;;;;;;;;;15.33;78.88;102694.34;5086275;28;19919;-61
2022/07/09 04:36:33;;;;;;;;;;;;;;;15.38;79.20;102694.72;5079445;28;19919;-61
2022/07/09 04:38:58;;;;;;;;;;;;;;;15.45;79.34;102709.16;5080611;28;19923;-61
2022/07/09 04:41:24;;;;;;;;;;;;;;;15.53;79.55;102709.19;5083724;28;19928;-61
2022/07/09 04:43:50;;;;;;;;;;;;;;;15.59;79.93;102705.06;5088908;28;20389;-61
2022/07/09 04:46:16;;;;;;;;;;;;;;;15.64;80.11;102710.81;5090783;28;19918;-61
2022/07/09 04:48:41;;;;;;;;;;;;;;;15.69;80.16;102703.97;5090007;28;19927;-60
2022/07/09 04:51:06;;;;;;;;;;;;;;;15.75;80.12;102694.47;5092451;28;19942;-61
2022/07/09 04:53:31;;;;;;;;;;;;;;;15.80;79.70;102695.66;5089006;28;19912;-61
2022/07/09 04:55:57;;;;;;;;;;;;;;;15.86;79.33;102693.34;5091566;28;19920;-60
2022/07/09 04:58:22;;;;;;;;;;;;;;;15.91;79.09;102686.53;5087953;28;19985;-60
2022/07/09 05:00:47;;;;;;;;;;;;;;;15.97;78.92;102685.88;5088032;28;20024;-60
2022/07/09 05:03:12;;;;;;;;;;;;;;;16.04;79.51;102688.75;5089275;28;19912;-60
2022/07/09 05:05:37;;;;;;;;;;;;;;;16.08;79.86;102690.09;5089871;28;19919;-61
2022/07/09 05:08:03;;;;;;;;;;;;;;;16.13;79.90;102684.25;5092677;28;19916;-61
2022/07/09 05:10:28;;;;;;;;;;;;;;;16.18;80.06;102687.28;5085114;28;19912;-61
2022/07/09 05:12:53;;;;;;;;;;;;;;;16.24;79.92;102686.66;5090396;28;19923;-61
2022/07/09 05:15:18;;;;;;;;;;;;;;;16.30;79.25;102680.63;5088548;28;20378;-61
2022/07/09 05:17:44;;;;;;;;;;;;;;;16.34;79.50;102682.81;5091243;28;20014;-60
2022/07/09 05:20:10;;;;;;;;;;;;;;;16.39;80.41;102683.16;5086896;28;19919;-61
2022/07/09 05:22:36;;;;;;;;;;;;;;;16.43;80.57;102675.63;5087454;28;19926;-61
2022/07/09 05:25:03;;;;;;;;;;;;;;;16.45;80.69;102687.03;5089161;28;19915;-60
2022/07/09 05:27:28;;;;;;;;;;;;;;;16.44;81.20;102682.66;5089764;28;19912;-61
2022/07/09 05:29:54;;;;;;;;;;;;;;;16.43;81.78;102683.66;5087764;28;20034;-61
2022/07/09 05:32:19;;;;;;;;;;;;;;;16.42;81.79;102672.09;5089167;28;19915;-60
2022/07/09 05:34:44;;;;;;;;;;;;;;;16.46;81.95;102679.81;5090570;28;20216;-61
2022/07/09 05:37:09;;;;;;;;;;;;;;;16.45;81.66;102684.34;5087155;28;19972;-60
2022/07/09 05:39:34;;;;;;;;;;;;;;;16.42;82.13;102680.16;5085282;28;20336;-61
2022/07/09 05:42:00;;;;;;;;;;;;;;;16.42;81.69;102672.09;5090931;28;19916;-61
2022/07/09 05:44:25;;;;;;;;;;;;;;;16.47;82.09;102670.75;5089631;28;19952;-61
2022/07/09 05:46:50;;;;;;;;;;;;;;;16.53;82.60;102673.66;5088720;28;19970;-60
2022/07/09 05:49:15;;;;;;;;;;;;;;;16.48;82.99;102667.94;5091273;28;19923;-60
2022/07/09 05:51:41;;;;;;;;;;;;;;;16.45;83.41;102662.03;5087485;28;20264;-60
2022/07/09 05:54:06;;;;;;;;;;;;;;;16.40;83.76;102662.53;5091393;28;19919;-61
2022/07/09 05:56:31;;;;;;;;;;;;;;;16.38;84.09;102673.44;5079902;28;19920;-60
2022/07/09 05:58:57;;;;;;;;;;;;;;;16.35;83.82;102673.78;5087054;28;20022;-61
2022/07/09 06:01:22;;;;;;;;;;;;;;;16.37;84.22;102676.28;5085733;28;19919;-60
2022/07/09 06:03:47;;;;;;;;;;;;;;;16.42;84.54;102672.09;5089444;28;19923;-61
2022/07/09 06:06:12;;;;;;;;;;;;;;;16.50;84.51;102681.19;5086404;28;19922;-61
2022/07/09 06:08:38;;;;;;;;;;;;;;;16.55;84.52;102686.91;5079499;28;19920;-61
2022/07/09 06:11:03;;;;;;;;;;;;;;;16.60;84.56;102687.25;5082744;28;19911;-60
2022/07/09 06:13:28;;;;;;;;;;;;;;;16.65;84.19;102692.94;5080534;28;20504;-60
2022/07/09 06:15:54;;;;;;;;;;;;;;;16.65;84.47;102696.47;5088052;28;19915;-60
2022/07/09 06:18:19;;;;;;;;;;;;;;;16.69;85.20;102697.00;5090037;28;20264;-61
2022/07/09 06:20:44;;;;;;;;;;;;;;;16.70;84.97;102704.03;5087533;28;19916;-61
2022/07/09 06:23:10;;;;;;;;;;;;;;;16.69;85.48;102703.19;5082591;28;19918;-60
2022/07/09 06:25:35;;;;;;;;;;;;;;;16.74;85.50;102702.69;5085225;28;19920;-61
2022/07/09 06:28:01;;;;;;;;;;;;;;;16.79;84.99;102703.06;5088084;28;20272;-61
2022/07/09 06:30:26;;;;;;;;;;;;;;;16.85;85.17;102701.56;5084445;28;20202;-61
2022/07/09 06:32:51;;;;;;;;;;;;;;;16.91;85.28;102693.69;5066064;28;19920;-60
2022/07/09 06:35:16;;;;;;;;;;;;;;;17.02;85.33;102700.53;5089512;28;19931;-60
2022/07/09 06:37:42;;;;;;;;;;;;;;;17.10;85.79;102705.09;5087433;28;21162;-60
2022/07/09 06:40:07;;;;;;;;;;;;;;;17.17;85.51;102693.50;5087870;28;19924;-60
2022/07/09 06:42:32;;;;;;;;;;;;;;;17.30;85.54;102692.97;5082390;28;20375;-61
2022/07/09 06:44:58;;;;;;;;;;;;;;;17.39;85.80;102694.66;5084971;28;19970;-61
2022/07/09 06:47:23;;;;;;;;;;;;;;;17.48;85.84;102696.31;5082112;28;20442;-60
2022/07/09 06:49:48;;;;;;;;;;;;;;;17.57;85.33;102697.97;5084259;28;19996;-61
2022/07/09 06:52:13;;;;;;;;;;;;;;;17.68;85.87;102693.31;5086785;28;20286;-60
2022/07/09 06:54:38;;;;;;;;;;;;;;;17.80;85.97;102694.59;5082115;28;20375;-60
2022/07/09 06:57:04;;;;;;;;;;;;;;;17.90;85.88;102688.00;5084699;28;19970;-60
2022/07/09 06:59:29;;;;;;;;;;;;;;;18.00;85.55;102693.19;5082724;28;20491;-61
2022/07/09 07:01:54;;;;;;;;;;;;;;;18.12;85.29;102686.41;5080124;28;19916;-61
2022/07/09 07:04:20;;;;;;;;;;;;;;;18.21;85.02;102685.38;5081229;28;19978;-60
2022/07/09 07:06:48;;;;;;;;;;;;;;;18.29;84.74;102689.03;5082336;28;19916;-61
2022/07/09 07:09:13;;;;;;;;;;;;;;;18.39;83.90;102695.00;5082741;28;19927;-61
2022/07/09 07:11:38;;;;;;;;;;;;;;;18.47;83.78;102692.25;5086490;28;19919;-61
2022/07/09 07:14:03;;;;;;;;;;;;;;;18.52;83.07;102689.91;5086188;28;19919;-61
2022/07/09 07:16:29;;;;;;;;;;;;;;;18.56;83.41;102689.38;5087253;28;20178;-61
2022/07/09 07:18:54;;;;;;;;;;;;;;;18.61;83.06;102694.22;5087949;28;20383;-60
2022/07/09 07:21:19;;;;;;;;;;;;;;;18.66;82.81;102688.31;5081722;28;20393;-61
2022/07/09 07:23:45;;;;;;;;;;;;;;;18.69;82.98;102686.09;5084243;28;19920;-61
2022/07/09 07:26:10;;;;;;;;;;;;;;;18.74;82.52;102690.94;5079650;28;19947;-61
2022/07/09 07:28:35;;;;;;;;;;;;;;;18.82;82.49;102697.13;5080757;28;19926;-60
2022/07/09 07:31:00;;;;;;;;;;;;;;;18.92;82.35;102688.78;5080483;28;20343;-61
2022/07/09 07:33:26;;;;;;;;;;;;;;;19.04;82.03;102691.88;5084756;28;19981;-61
2022/07/09 07:35:51;;;;;;;;;;;;;;;19.17;81.79;102697.50;5084738;28;20026;-61
2022/07/09 07:38:16;;;;;;;;;;;;;;;19.29;81.11;102697.91;5081854;28;20389;-61
2022/07/09 07:40:42;;;;;;;;;;;;;;;19.38;80.38;102694.97;5082570;28;19918;-61
2022/07/09 07:43:10;;;;;;;;;;;;;;;19.46;79.84;102699.44;5087267;28;19972;-61
2022/07/09 07:45:35;;;;;;;;;;;;;;;19.55;79.62;102705.59;5089264;28;19990;-61
2022/07/09 07:48:00;;;;;;;;;;;;;;;19.61;79.34;102705.69;5087766;28;19958;-61
2022/07/09 07:50:25;;;;;;;;;;;;;;;19.64;79.00;102708.00;5090221;28;19908;-61
2022/07/09 07:52:51;;;;;;;;;;;;;;;19.65;78.64;102712.38;5083350;28;19919;-61
2022/07/09 07:55:16;;;;;;;;;;;;;;;19.63;78.26;102700.94;5083836;28;20456;-61
2022/07/09 07:57:41;;;;;;;;;;;;;;;19.67;77.97;102701.44;5081143;28;19931;-61
2022/07/09 08:00:07;;;;;;;;;;;;;;;19.70;77.67;102703.75;5078941;28;20133;-61
2022/07/09 08:02:32;;;;;;;;;;;;;;;19.77;78.08;102685.81;5080801;28;20451;-61
2022/07/09 08:04:57;;;;;;;;;;;;;;;19.85;77.75;102684.88;5082092;28;20295;-61
2022/07/09 08:07:23;;;;;;;;;;;;;;;19.90;77.20;102682.44;5082665;28;19911;-61
2022/07/09 08:09:48;;;;;;;;;;;;;;;20.00;77.47;102678.44;5088702;28;20310;-60
2022/07/09 08:12:13;;;;;;;;;;;;;;;20.10;77.04;102676.28;5086418;28;19908;-61
2022/07/09 08:14:39;;;;;;;;;;;;;;;20.08;75.79;102664.00;5087299;28;19931;-60
2022/07/09 08:17:04;;;;;;;;;;;;;;;20.06;75.74;102666.06;5087567;28;19911;-61
2022/07/09 08:19:29;;;;;;;;;;;;;;;20.07;75.51;102657.78;5088006;28;19965;-61
2022/07/09 08:21:56;;;;;;;;;;;;;;;20.04;74.84;102655.47;5087942;28;20291;-61
2022/07/09 08:24:21;;;;;;;;;;;;;;;20.05;74.41;102664.41;5087072;28;19908;-61
2022/07/09 08:26:46;;;;;;;;;;;;;;;20.15;74.56;102658.69;5088414;28;19918;-61
2022/07/09 08:29:11;;;;;;;;;;;;;;;20.25;74.28;102648.47;5087801;28;19912;-61
2022/07/09 08:31:36;;;;;;;;;;;;;;;20.29;73.62;102647.88;5087751;28;19965;-60
2022/07/09 08:34:01;;;;;;;;;;;;;;;20.38;73.42;102651.28;5087848;28;19947;-61
2022/07/09 08:36:27;;;;;;;;;;;;;;;20.46;73.45;102648.47;5085758;28;19965;-61
2022/07/09 08:38:52;;;;;;;;;;;;;;;20.54;72.07;102651.09;5087719;28;20006;-61
2022/07/09 08:41:19;;;;;;;;;;;;;;;20.53;71.36;102652.13;5085947;28;20418;-61
2022/07/09 08:43:48;;;;;;;;;;;;;;;20.53;71.57;102646.72;5087781;28;19915;-61
2022/07/09 08:46:13;;;;;;;;;;;;;;;20.58;71.70;102648.84;5086173;28;19959;-61
2022/07/09 08:48:38;;;;;;;;;;;;;;;20.69;71.38;102649.13;5085932;28;19939;-61
2022/07/09 08:51:03;;;;;;;;;;;;;;;20.75;71.42;102654.78;5087104;28;20367;-60
2022/07/09 08:53:29;;;;;;;;;;;;;;;20.78;70.83;102651.69;5082170;28;20463;-61
2022/07/09 08:55:54;;;;;;;;;;;;;;;20.77;70.75;102653.56;5088583;28;20300;-61
2022/07/09 08:58:20;;;;;;;;;;;;;;;20.75;70.88;102649.38;5078882;28;20022;-61
2022/07/09 09:00:47;;;;;;;;;;;;;;;20.76;70.71;102648.34;5087823;28;20398;-61
2022/07/09 09:03:12;;;;;;;;;;;;;;;20.83;70.24;102658.22;5084156;28;19912;-61
2022/07/09 09:05:37;;;;;;;;;;;;;;;20.86;70.03;102657.81;5086832;28;19916;-61
2022/07/09 09:08:16;;;;;;;;;;;;;;;20.91;70.51;102663.47;5087742;28;20014;-60
2022/07/09 09:10:44;;;;;;;;;;;;;;;20.97;70.60;102659.16;5079440;28;19954;-61
2022/07/09 09:13:13;;;;;;;;;;;;;;;21.02;70.05;102656.69;5087962;28;19908;-61
2022/07/09 09:15:38;;;;;;;;;;;;;;;21.02;70.15;102654.00;5087092;28;20002;-61
2022/07/09 09:18:03;;;;;;;;;;;;;;;21.03;69.80;102661.91;5087461;28;20010;-61
2022/07/09 09:20:28;;;;;;;;;;;;;;;21.00;70.18;102653.34;5085891;28;19935;-61
2022/07/09 09:22:59;;;;;;;;;;;;;;;20.95;69.72;102651.25;5087551;28;19958;-61
2022/07/09 09:25:24;;;;;;;;;;;;;;;20.88;69.88;102647.66;5086897;28;20008;-60
2022/07/09 09:27:50;;;;;;;;;;;;;;;20.82;69.50;102655.72;5087797;28;19943;-61
2022/07/09 09:30:16;;;;;;;;;;;;;;;20.76;69.94;102656.47;5090157;28;19947;-61
2022/07/09 09:32:41;;;;;;;;;;;;;;;20.72;69.93;102646.06;5087766;28;20525;-61
2022/07/09 09:35:06;;;;;;;;;;;;;;;20.73;70.13;102642.31;5082509;28;19912;-61
2022/07/09 09:37:31;;;;;;;;;;;;;;;20.81;70.15;102654.84;5090473;28;19961;-61
2022/07/09 09:39:57;;;;;;;;;;;;;;;20.84;69.99;102650.94;5091770;28;19915;-61
2022/07/09 09:42:24;;;;;;;;;;;;;;;20.84;70.18;102640.97;5089119;28;19919;-61
2022/07/09 09:44:50;;;;;;;;;;;;;;;20.89;70.10;102654.72;5090446;28;19907;-61
2022/07/09 09:47:19;;;;;;;;;;;;;;;20.87;70.21;102650.56;5091656;28;19908;-61
2022/07/09 09:49:45;;;;;;;;;;;;;;;20.84;69.94;102659.03;5088329;28;19908;-61
2022/07/09 09:52:10;;;;;;;;;;;;;;;20.76;70.21;102651.06;5090084;28;19912;-62
2022/07/09 09:54:36;;;;;;;;;;;;;;;20.73;70.16;102653.13;5088203;28;19969;-60
2022/07/09 09:57:06;;;;;;;;;;;;;;;20.67;70.19;102653.06;5091330;28;19953;-61
2022/07/09 09:59:32;;;;;;;;;;;;;;;20.64;70.46;102657.00;5090862;28;20327;-61
2022/07/09 10:01:58;;;;;;;;;;;;;;;20.59;70.15;102651.34;5087843;28;20006;-61
2022/07/09 10:04:25;;;;;;;;;;;;;;;20.57;70.09;102648.00;5090471;28;20006;-61
2022/07/09 10:06:50;;;;;;;;;;;;;;;20.57;69.89;102650.69;5090514;28;19915;-61
2022/07/09 10:09:15;;;;;;;;;;;;;;;20.48;70.22;102649.13;5091243;28;19912;-61
2022/07/09 10:11:45;;;;;;;;;;;;;;;20.46;70.34;102656.59;5089469;28;20391;-60
2022/07/09 10:14:16;;;;;;;;;;;;;;;20.51;70.92;102650.59;5085155;28;20159;-61
2022/07/09 10:16:41;;;;;;;;;;;;;;;20.53;71.24;102648.53;5086968;28;19912;-61
2022/07/09 10:19:07;;;;;;;;;;;;;;;20.68;71.15;102647.47;5089248;28;20014;-61
2022/07/09 10:21:33;;;;;;;;;;;;;;;20.83;70.85;102636.59;5087695;28;20445;-61
2022/07/09 10:23:58;;;;;;;;;;;;;;;20.96;71.08;102644.81;5088203;28;19912;-61
2022/07/09 10:26:34;;;;;;;;;;;;;;;21.04;70.46;102655.47;5090509;28;19965;-61
2022/07/09 10:28:59;;;;;;;;;;;;;;;21.14;70.50;102641.63;5090610;28;19915;-61
2022/07/09 10:31:25;;;;;;;;;;;;;;;21.27;69.70;102639.03;5078231;28;20299;-61
2022/07/09 10:33:56;;;;;;;;;;;;;;;21.45;68.56;102640.41;5083405;28;20395;-61
2022/07/09 10:36:21;;;;;;;;;;;;;;;21.59;67.94;102634.03;5085987;28;19912;-61
2022/07/09 10:38:53;;;;;;;;;;;;;;;21.68;67.95;102630.13;5089273;28;19961;-61
2022/07/09 10:41:22;;;;;;;;;;;;;;;21.92;68.22;102632.31;5087251;28;19941;-60
2022/07/09 10:43:51;;;;;;;;;;;;;;;22.22;67.98;102637.44;5090613;28;19916;-61
2022/07/09 10:46:16;;;;;;;;;;;;;;;22.48;66.91;102640.22;5088813;28;20364;-61
2022/07/09 10:48:43;;;;;;;;;;;;;;;22.45;65.42;102648.75;5088891;28;19907;-61
2022/07/09 10:51:15;;;;;;;;;;;;;;;22.43;64.69;102644.56;5084635;28;19917;-61
2022/07/09 10:53:40;;;;;;;;;;;;;;;22.38;64.88;102642.50;5089643;28;19973;-61
2022/07/09 10:56:06;;;;;;;;;;;;;;;22.38;64.40;102647.06;5089189;28;19916;-61
2022/07/09 10:58:31;;;;;;;;;;;;;;;22.34;64.52;102646.66;5088363;28;20298;-61
2022/07/09 11:00:57;;;;;;;;;;;;;;;22.30;64.00;102639.97;5088661;28;20329;-61
2022/07/09 11:03:26;;;;;;;;;;;;;;;22.28;64.68;102638.53;5087603;28;19926;-60
2022/07/09 11:05:52;;;;;;;;;;;;;;;22.34;63.77;102649.34;5089852;28;19935;-61
2022/07/09 11:08:17;;;;;;;;;;;;;;;22.36;63.02;102649.97;5087851;28;20314;-61
2022/07/09 11:10:42;;;;;;;;;;;;;;;22.45;62.89;102647.91;5089161;28;19915;-61
2022/07/09 11:13:09;;;;;;;;;;;;;;;22.60;62.55;102653.16;5089096;28;19912;-61
2022/07/09 11:15:34;;;;;;;;;;;;;;;22.59;62.09;102649.63;5086845;28;19912;-62
2022/07/09 11:18:02;;;;;;;;;;;;;;;22.61;61.49;102655.66;5088951;28;19922;-62
2022/07/09 11:20:27;;;;;;;;;;;;;;;22.58;60.75;102668.78;5087537;28;20405;-61
2022/07/09 11:22:56;;;;;;;;;;;;;;;22.37;60.17;102654.34;5087254;28;19908;-61
2022/07/09 11:25:21;;;;;;;;;;;;;;;22.33;61.02;102660.38;5083327;28;19919;-60
2022/07/09 11:27:46;;;;;;;;;;;;;;;22.33;60.52;102658.53;5089983;28;19908;-61
2022/07/09 11:30:13;;;;;;;;;;;;;;;22.31;60.29;102662.47;5087860;28;19915;-61
2022/07/09 11:32:38;;;;;;;;;;;;;;;22.21;60.31;102652.00;5086831;28;19964;-62
2022/07/09 11:35:03;;;;;;;;;;;;;;;22.32;60.40;102656.84;5084702;28;19912;-62
2022/07/09 11:37:28;;;;;;;;;;;;;;;22.41;60.03;102661.03;5087260;28;19973;-60
2022/07/09 11:39:54;;;;;;;;;;;;;;;22.49;59.61;102665.41;5088499;28;20337;-61
2022/07/09 11:42:20;;;;;;;;;;;;;;;22.51;59.04;102664.16;5081478;28;20003;-61
2022/07/09 11:45:02;;;;;;;;;;;;;;;22.58;58.84;102661.50;5086218;28;19908;-61
2022/07/09 11:47:34;;;;;;;;;;;;;;;22.63;58.11;102648.16;5089083;28;19908;-61
2022/07/09 11:50:13;;;;;;;;;;;;;;;22.62;58.52;102648.38;5087174;28;19919;-62
2022/07/09 11:52:46;;;;;;;;;;;;;;;22.63;58.36;102647.31;5085167;28;19958;-61
2022/07/09 11:55:13;;;;;;;;;;;;;;;22.66;57.46;102655.03;5087686;28;19908;-61
2022/07/09 11:57:39;;;;;;;;;;;;;;;22.74;58.00;102652.13;5088588;28;20040;-61
2022/07/09 12:00:05;;;;;;;;;;;;;;;22.81;58.23;102651.09;5084123;28;20403;-61
2022/07/09 12:02:32;;;;;;;;;;;;;;;22.86;57.13;102658.63;5085258;28;20043;-62
2022/07/09 12:05:01;;;;;;;;;;;;;;;22.87;57.26;102657.59;5079876;28;20552;-62
2022/07/09 12:07:26;;;;;;;;;;;;;;;22.81;56.49;102661.94;5082554;28;19916;-61
2022/07/09 12:10:24;;;;;;;;;;;;;;;22.81;56.37;102663.81;5085373;28;20437;-62
2022/07/09 12:12:49;;;;;;;;;;;;;;;22.85;55.82;102662.38;5030826;28;20386;-61
2022/07/09 12:15:16;;;;;;;;;;;;;;;22.86;55.56;102654.03;5082477;28;19912;-61
2022/07/09 12:17:41;;;;;;;;;;;;;;;22.88;55.96;102666.56;5085181;28;19907;-62
2022/07/09 12:20:09;;;;;;;;;;;;;;;22.96;55.94;102666.34;5082871;28;20006;-61
2022/07/09 12:22:34;;;;;;;;;;;;;;;23.09;55.38;102667.16;5081797;28;19959;-62
2022/07/09 12:24:59;;;;;;;;;;;;;;;23.20;54.99;102660.28;5085131;28;19966;-61
2022/07/09 12:27:24;;;;;;;;;;;;;;;23.35;53.68;102665.47;5082413;28;20415;-61